sensor_id;sensor_type;location;lat;lon;timestamp;temperature;humidity
17887;DHT22;9069;52.044;7.472;2023-08-01T00:00:11;20.60;99.90
17887;DHT22;9069;52.044;7.472;2023-08-01T00:02:38;20.60;99.90
17887;DHT22;9069;52.044;7.472;2023-08-01T00:05:05;20.50;99.90
17887;DHT22;9069;52.044;7.472;2023-08-01T00:07:32;20.50;99.90
17887;DHT22;9069;52.044;7.472;2023-08-01T00:10:03;20.50;99.90
17887;DHT22;9069;52.044;7.472;2023-08-01T00:12:30;20.50;99.90
17887;DHT22;9069;52.044;7.472;2023-08-01T00:14:57;20.50;99.90
17887;DHT22;9069;52.044;7.472;2023-08-01T00:17:24;20.50;99.90
17887;DHT22;9069;52.044;7.472;2023-08-01T00:19:51;20.50;99.90
17887;DHT22;9069;52.044;7.472;2023-08-01T00:22:18;20.50;99.90
17887;DHT22;9069;52.044;7.472;2023-08-01T00:24:45;20.40;99.90
17887;DHT22;9069;52.044;7.472;2023-08-01T00:27:14;20.40;99.90
17887;DHT22;9069;52.044;7.472;2023-08-01T00:29:41;20.50;99.90
17887;DHT22;9069;52.044;7.472;2023-08-01T00:32:08;20.40;99.90
17887;DHT22;9069;52.044;7.472;2023-08-01T00:34:36;20.40;99.90
17887;DHT22;9069;52.044;7.472;2023-08-01T00:37:03;20.40;99.90
17887;DHT22;9069;52.044;7.472;2023-08-01T00:39:30;20.40;99.90
17887;DHT22;9069;52.044;7.472;2023-08-01T00:41:57;20.40;99.90
17887;DHT22;9069;52.044;7.472;2023-08-01T00:44:23;20.30;99.90
17887;DHT22;9069;52.044;7.472;2023-08-01T00:46:50;20.30;99.90
17887;DHT22;9069;52.044;7.472;2023-08-01T00:49:17;20.30;99.90
17887;DHT22;9069;52.044;7.472;2023-08-01T00:51:44;20.30;99.90
17887;DHT22;9069;52.044;7.472;2023-08-01T00:54:11;20.30;99.90
17887;DHT22;9069;52.044;7.472;2023-08-01T00:56:38;20.30;99.90
17887;DHT22;9069;52.044;7.472;2023-08-01T00:59:05;20.30;99.90
17887;DHT22;9069;52.044;7.472;2023-08-01T01:01:32;20.30;99.90
17887;DHT22;9069;52.044;7.472;2023-08-01T01:03:59;20.30;99.90
17887;DHT22;9069;52.044;7.472;2023-08-01T01:06:32;20.30;99.90
17887;DHT22;9069;52.044;7.472;2023-08-01T01:09:01;20.30;99.90
17887;DHT22;9069;52.044;7.472;2023-08-01T01:11:31;20.30;99.90
17887;DHT22;9069;52.044;7.472;2023-08-01T01:13:58;20.30;99.90
17887;DHT22;9069;52.044;7.472;2023-08-01T01:16:25;20.30;99.90
17887;DHT22;9069;52.044;7.472;2023-08-01T01:18:51;20.30;99.90
17887;DHT22;9069;52.044;7.472;2023-08-01T01:21:18;20.30;99.90
17887;DHT22;9069;52.044;7.472;2023-08-01T01:23:45;20.20;99.90
17887;DHT22;9069;52.044;7.472;2023-08-01T01:26:12;20.30;99.90
17887;DHT22;9069;52.044;7.472;2023-08-01T01:28:40;20.30;99.90
17887;DHT22;9069;52.044;7.472;2023-08-01T01:31:08;20.30;99.90
17887;DHT22;9069;52.044;7.472;2023-08-01T01:33:35;20.30;99.90
17887;DHT22;9069;52.044;7.472;2023-08-01T01:36:02;20.30;99.90
17887;DHT22;9069;52.044;7.472;2023-08-01T01:38:29;20.30;99.90
17887;DHT22;9069;52.044;7.472;2023-08-01T01:40:56;20.30;99.90
17887;DHT22;9069;52.044;7.472;2023-08-01T01:43:22;20.30;99.90
17887;DHT22;9069;52.044;7.472;2023-08-01T01:45:49;20.30;99.90
17887;DHT22;9069;52.044;7.472;2023-08-01T01:48:16;20.30;99.90
17887;DHT22;9069;52.044;7.472;2023-08-01T01:50:43;20.30;99.90
17887;DHT22;9069;52.044;7.472;2023-08-01T01:53:09;20.30;99.90
17887;DHT22;9069;52.044;7.472;2023-08-01T01:55:36;20.30;99.90
17887;DHT22;9069;52.044;7.472;2023-08-01T01:58:03;20.40;99.90
17887;DHT22;9069;52.044;7.472;2023-08-01T02:00:30;20.30;99.90
17887;DHT22;9069;52.044;7.472;2023-08-01T02:02:56;20.40;99.90
17887;DHT22;9069;52.044;7.472;2023-08-01T02:05:23;20.30;99.90
17887;DHT22;9069;52.044;7.472;2023-08-01T02:07:50;20.30;99.90
17887;DHT22;9069;52.044;7.472;2023-08-01T02:10:17;20.30;99.90
17887;DHT22;9069;52.044;7.472;2023-08-01T02:12:43;20.30;99.90
17887;DHT22;9069;52.044;7.472;2023-08-01T02:15:10;20.30;99.90
17887;DHT22;9069;52.044;7.472;2023-08-01T02:17:38;20.30;99.90
17887;DHT22;9069;52.044;7.472;2023-08-01T02:20:05;20.30;99.90
17887;DHT22;9069;52.044;7.472;2023-08-01T02:22:33;20.30;99.90
17887;DHT22;9069;52.044;7.472;2023-08-01T02:25:00;20.30;99.90
17887;DHT22;9069;52.044;7.472;2023-08-01T02:27:27;20.30;99.90
17887;DHT22;9069;52.044;7.472;2023-08-01T02:29:53;20.30;99.90
17887;DHT22;9069;52.044;7.472;2023-08-01T02:32:20;20.30;99.90
17887;DHT22;9069;52.044;7.472;2023-08-01T02:34:47;20.30;99.90
17887;DHT22;9069;52.044;7.472;2023-08-01T02:37:14;20.30;99.90
17887;DHT22;9069;52.044;7.472;2023-08-01T02:39:41;20.30;99.90
17887;DHT22;9069;52.044;7.472;2023-08-01T02:42:08;20.40;99.90
17887;DHT22;9069;52.044;7.472;2023-08-01T02:44:35;20.30;99.90
17887;DHT22;9069;52.044;7.472;2023-08-01T02:47:01;20.30;99.90
17887;DHT22;9069;52.044;7.472;2023-08-01T02:49:28;20.30;99.90
17887;DHT22;9069;52.044;7.472;2023-08-01T02:51:55;20.30;99.90
17887;DHT22;9069;52.044;7.472;2023-08-01T02:54:21;20.30;99.90
17887;DHT22;9069;52.044;7.472;2023-08-01T02:56:48;20.30;99.90
17887;DHT22;9069;52.044;7.472;2023-08-01T02:59:15;20.30;99.90
17887;DHT22;9069;52.044;7.472;2023-08-01T03:01:42;20.30;99.90
17887;DHT22;9069;52.044;7.472;2023-08-01T03:04:09;20.30;99.90
17887;DHT22;9069;52.044;7.472;2023-08-01T03:06:38;20.20;99.90
17887;DHT22;9069;52.044;7.472;2023-08-01T03:09:05;20.20;99.90
17887;DHT22;9069;52.044;7.472;2023-08-01T03:11:37;20.20;99.90
17887;DHT22;9069;52.044;7.472;2023-08-01T03:14:04;20.20;99.90
17887;DHT22;9069;52.044;7.472;2023-08-01T03:16:31;20.20;99.90
17887;DHT22;9069;52.044;7.472;2023-08-01T03:18:58;20.20;99.90
17887;DHT22;9069;52.044;7.472;2023-08-01T03:21:34;20.20;99.90
17887;DHT22;9069;52.044;7.472;2023-08-01T03:24:02;20.20;99.90
17887;DHT22;9069;52.044;7.472;2023-08-01T03:26:29;20.20;99.90
17887;DHT22;9069;52.044;7.472;2023-08-01T03:28:56;20.20;99.90
17887;DHT22;9069;52.044;7.472;2023-08-01T03:31:23;20.20;99.90
17887;DHT22;9069;52.044;7.472;2023-08-01T03:33:50;20.20;99.90
17887;DHT22;9069;52.044;7.472;2023-08-01T03:36:17;20.10;99.90
17887;DHT22;9069;52.044;7.472;2023-08-01T03:38:44;20.10;99.90
17887;DHT22;9069;52.044;7.472;2023-08-01T03:41:11;20.10;99.90
17887;DHT22;9069;52.044;7.472;2023-08-01T03:43:38;20.10;99.90
17887;DHT22;9069;52.044;7.472;2023-08-01T03:46:05;20.10;99.90
17887;DHT22;9069;52.044;7.472;2023-08-01T03:48:32;20.00;99.90
17887;DHT22;9069;52.044;7.472;2023-08-01T03:50:59;20.00;99.90
17887;DHT22;9069;52.044;7.472;2023-08-01T03:53:26;20.00;99.90
17887;DHT22;9069;52.044;7.472;2023-08-01T03:55:53;20.00;99.90
17887;DHT22;9069;52.044;7.472;2023-08-01T03:58:20;20.00;99.90
17887;DHT22;9069;52.044;7.472;2023-08-01T04:00:47;20.00;99.90
17887;DHT22;9069;52.044;7.472;2023-08-01T04:03:13;20.00;99.90
17887;DHT22;9069;52.044;7.472;2023-08-01T04:05:40;20.00;99.90
17887;DHT22;9069;52.044;7.472;2023-08-01T04:08:07;20.00;99.90
17887;DHT22;9069;52.044;7.472;2023-08-01T04:10:34;19.90;99.90
17887;DHT22;9069;52.044;7.472;2023-08-01T04:13:00;20.00;99.90
17887;DHT22;9069;52.044;7.472;2023-08-01T04:15:27;19.90;99.90
17887;DHT22;9069;52.044;7.472;2023-08-01T04:17:54;20.00;99.90
17887;DHT22;9069;52.044;7.472;2023-08-01T04:20:21;19.90;99.90
17887;DHT22;9069;52.044;7.472;2023-08-01T04:22:47;19.90;99.90
17887;DHT22;9069;52.044;7.472;2023-08-01T04:25:14;19.90;99.90
17887;DHT22;9069;52.044;7.472;2023-08-01T04:27:41;19.90;99.90
17887;DHT22;9069;52.044;7.472;2023-08-01T04:30:08;19.90;99.90
17887;DHT22;9069;52.044;7.472;2023-08-01T04:32:35;19.90;99.90
17887;DHT22;9069;52.044;7.472;2023-08-01T04:35:01;19.90;99.90
17887;DHT22;9069;52.044;7.472;2023-08-01T04:37:28;19.90;99.90
17887;DHT22;9069;52.044;7.472;2023-08-01T04:39:55;19.90;99.90
17887;DHT22;9069;52.044;7.472;2023-08-01T04:42:22;19.90;99.90
17887;DHT22;9069;52.044;7.472;2023-08-01T04:44:48;19.90;99.90
17887;DHT22;9069;52.044;7.472;2023-08-01T04:47:15;19.90;99.90
17887;DHT22;9069;52.044;7.472;2023-08-01T04:49:42;19.80;99.90
17887;DHT22;9069;52.044;7.472;2023-08-01T04:52:09;19.90;99.90
17887;DHT22;9069;52.044;7.472;2023-08-01T04:54:35;19.90;99.90
17887;DHT22;9069;52.044;7.472;2023-08-01T04:57:02;19.90;99.90
17887;DHT22;9069;52.044;7.472;2023-08-01T04:59:29;19.90;99.90
17887;DHT22;9069;52.044;7.472;2023-08-01T05:01:56;19.90;99.90
17887;DHT22;9069;52.044;7.472;2023-08-01T05:04:23;19.90;99.90
17887;DHT22;9069;52.044;7.472;2023-08-01T05:06:50;19.90;99.90
17887;DHT22;9069;52.044;7.472;2023-08-01T05:09:17;19.90;99.90
17887;DHT22;9069;52.044;7.472;2023-08-01T05:11:43;19.90;99.90
17887;DHT22;9069;52.044;7.472;2023-08-01T05:14:10;19.90;99.90
17887;DHT22;9069;52.044;7.472;2023-08-01T05:16:37;19.80;99.90
17887;DHT22;9069;52.044;7.472;2023-08-01T05:19:04;19.80;99.90
17887;DHT22;9069;52.044;7.472;2023-08-01T05:21:31;19.90;99.90
17887;DHT22;9069;52.044;7.472;2023-08-01T05:23:58;19.90;99.90
17887;DHT22;9069;52.044;7.472;2023-08-01T05:26:24;19.90;99.90
17887;DHT22;9069;52.044;7.472;2023-08-01T05:28:51;19.90;99.90
17887;DHT22;9069;52.044;7.472;2023-08-01T05:31:18;20.00;99.90
17887;DHT22;9069;52.044;7.472;2023-08-01T05:33:45;19.90;99.90
17887;DHT22;9069;52.044;7.472;2023-08-01T05:36:11;19.80;99.90
17887;DHT22;9069;52.044;7.472;2023-08-01T05:38:38;19.90;99.90
17887;DHT22;9069;52.044;7.472;2023-08-01T05:41:05;19.90;99.90
17887;DHT22;9069;52.044;7.472;2023-08-01T05:43:32;19.90;99.90
17887;DHT22;9069;52.044;7.472;2023-08-01T05:45:59;19.90;99.90
17887;DHT22;9069;52.044;7.472;2023-08-01T05:48:26;19.90;99.90
17887;DHT22;9069;52.044;7.472;2023-08-01T05:50:52;19.90;99.90
17887;DHT22;9069;52.044;7.472;2023-08-01T05:53:22;19.90;99.90
17887;DHT22;9069;52.044;7.472;2023-08-01T05:55:48;19.90;99.90
17887;DHT22;9069;52.044;7.472;2023-08-01T05:58:15;19.90;99.90
17887;DHT22;9069;52.044;7.472;2023-08-01T06:00:42;19.90;99.90
17887;DHT22;9069;52.044;7.472;2023-08-01T06:03:09;20.00;99.90
17887;DHT22;9069;52.044;7.472;2023-08-01T06:05:36;19.90;99.90
17887;DHT22;9069;52.044;7.472;2023-08-01T06:08:06;19.90;99.90
17887;DHT22;9069;52.044;7.472;2023-08-01T06:10:33;20.00;99.90
17887;DHT22;9069;52.044;7.472;2023-08-01T06:13:00;20.00;99.90
17887;DHT22;9069;52.044;7.472;2023-08-01T06:15:27;20.00;99.90
17887;DHT22;9069;52.044;7.472;2023-08-01T06:17:54;20.00;99.90
17887;DHT22;9069;52.044;7.472;2023-08-01T06:20:20;20.00;99.90
17887;DHT22;9069;52.044;7.472;2023-08-01T06:22:47;20.00;99.90
17887;DHT22;9069;52.044;7.472;2023-08-01T06:25:14;20.00;99.90
17887;DHT22;9069;52.044;7.472;2023-08-01T06:27:41;20.10;99.90
17887;DHT22;9069;52.044;7.472;2023-08-01T06:30:08;20.10;99.90
17887;DHT22;9069;52.044;7.472;2023-08-01T06:32:34;20.20;99.90
17887;DHT22;9069;52.044;7.472;2023-08-01T06:35:01;20.20;99.90
17887;DHT22;9069;52.044;7.472;2023-08-01T06:37:28;20.30;99.90
17887;DHT22;9069;52.044;7.472;2023-08-01T06:39:55;20.40;99.90
17887;DHT22;9069;52.044;7.472;2023-08-01T06:42:22;20.60;99.90
17887;DHT22;9069;52.044;7.472;2023-08-01T06:44:48;20.70;99.90
17887;DHT22;9069;52.044;7.472;2023-08-01T06:47:15;20.80;99.90
17887;DHT22;9069;52.044;7.472;2023-08-01T06:49:42;20.90;99.90
17887;DHT22;9069;52.044;7.472;2023-08-01T06:52:09;20.90;99.90
17887;DHT22;9069;52.044;7.472;2023-08-01T06:54:36;21.00;99.70
17887;DHT22;9069;52.044;7.472;2023-08-01T06:57:06;20.90;99.40
17887;DHT22;9069;52.044;7.472;2023-08-01T06:59:32;20.90;99.20
17887;DHT22;9069;52.044;7.472;2023-08-01T07:02:00;20.90;99.10
17887;DHT22;9069;52.044;7.472;2023-08-01T07:04:27;20.90;98.90
17887;DHT22;9069;52.044;7.472;2023-08-01T07:06:54;20.80;98.80
17887;DHT22;9069;52.044;7.472;2023-08-01T07:09:20;20.70;98.70
17887;DHT22;9069;52.044;7.472;2023-08-01T07:11:47;20.70;98.60
17887;DHT22;9069;52.044;7.472;2023-08-01T07:14:14;20.60;98.60
17887;DHT22;9069;52.044;7.472;2023-08-01T07:16:41;20.50;98.70
17887;DHT22;9069;52.044;7.472;2023-08-01T07:19:08;20.40;98.70
17887;DHT22;9069;52.044;7.472;2023-08-01T07:21:35;20.30;98.70
17887;DHT22;9069;52.044;7.472;2023-08-01T07:24:01;20.30;98.80
17887;DHT22;9069;52.044;7.472;2023-08-01T07:26:28;20.20;98.90
17887;DHT22;9069;52.044;7.472;2023-08-01T07:28:56;20.20;99.10
17887;DHT22;9069;52.044;7.472;2023-08-01T07:31:23;20.20;99.50
17887;DHT22;9069;52.044;7.472;2023-08-01T07:33:50;20.20;99.80
17887;DHT22;9069;52.044;7.472;2023-08-01T07:36:17;20.20;99.90
17887;DHT22;9069;52.044;7.472;2023-08-01T07:38:44;20.30;99.90
17887;DHT22;9069;52.044;7.472;2023-08-01T07:41:10;20.40;99.90
17887;DHT22;9069;52.044;7.472;2023-08-01T07:43:37;20.50;99.90
17887;DHT22;9069;52.044;7.472;2023-08-01T07:46:04;20.60;99.90
17887;DHT22;9069;52.044;7.472;2023-08-01T07:48:31;20.70;99.90
17887;DHT22;9069;52.044;7.472;2023-08-01T07:50:57;20.80;99.90
17887;DHT22;9069;52.044;7.472;2023-08-01T07:53:24;20.90;99.90
17887;DHT22;9069;52.044;7.472;2023-08-01T07:55:52;21.00;99.90
17887;DHT22;9069;52.044;7.472;2023-08-01T07:58:19;21.00;99.90
17887;DHT22;9069;52.044;7.472;2023-08-01T08:00:46;21.10;99.90
17887;DHT22;9069;52.044;7.472;2023-08-01T08:03:13;21.20;99.90
17887;DHT22;9069;52.044;7.472;2023-08-01T08:05:40;21.20;99.90
17887;DHT22;9069;52.044;7.472;2023-08-01T08:08:07;21.30;99.90
17887;DHT22;9069;52.044;7.472;2023-08-01T08:10:33;21.30;99.90
17887;DHT22;9069;52.044;7.472;2023-08-01T08:13:00;21.40;99.90
17887;DHT22;9069;52.044;7.472;2023-08-01T08:15:27;21.50;99.90
17887;DHT22;9069;52.044;7.472;2023-08-01T08:17:54;21.60;99.90
17887;DHT22;9069;52.044;7.472;2023-08-01T08:20:20;21.80;99.90
17887;DHT22;9069;52.044;7.472;2023-08-01T08:22:47;22.00;99.90
17887;DHT22;9069;52.044;7.472;2023-08-01T08:25:14;22.20;99.90
17887;DHT22;9069;52.044;7.472;2023-08-01T08:27:41;22.50;99.90
17887;DHT22;9069;52.044;7.472;2023-08-01T08:30:08;22.70;99.90
17887;DHT22;9069;52.044;7.472;2023-08-01T08:32:35;23.00;99.90
17887;DHT22;9069;52.044;7.472;2023-08-01T08:35:03;23.30;99.90
17887;DHT22;9069;52.044;7.472;2023-08-01T08:37:30;23.70;99.90
17887;DHT22;9069;52.044;7.472;2023-08-01T08:39:57;23.90;99.80
17887;DHT22;9069;52.044;7.472;2023-08-01T08:42:23;24.20;99.80
17887;DHT22;9069;52.044;7.472;2023-08-01T08:44:54;24.50;99.40
17887;DHT22;9069;52.044;7.472;2023-08-01T08:47:25;24.80;98.50
17887;DHT22;9069;52.044;7.472;2023-08-01T08:49:57;25.10;97.90
17887;DHT22;9069;52.044;7.472;2023-08-01T08:52:25;25.40;96.80
17887;DHT22;9069;52.044;7.472;2023-08-01T08:54:52;25.60;96.90
17887;DHT22;9069;52.044;7.472;2023-08-01T08:57:20;25.80;96.00
17887;DHT22;9069;52.044;7.472;2023-08-01T08:59:48;25.90;95.10
17887;DHT22;9069;52.044;7.472;2023-08-01T09:02:15;25.90;94.30
17887;DHT22;9069;52.044;7.472;2023-08-01T09:04:42;25.90;93.60
17887;DHT22;9069;52.044;7.472;2023-08-01T09:07:10;25.70;93.10
17887;DHT22;9069;52.044;7.472;2023-08-01T09:09:38;25.60;92.70
17887;DHT22;9069;52.044;7.472;2023-08-01T09:12:05;25.40;92.70
17887;DHT22;9069;52.044;7.472;2023-08-01T09:14:32;25.20;92.60
17887;DHT22;9069;52.044;7.472;2023-08-01T09:17:06;25.00;92.70
17887;DHT22;9069;52.044;7.472;2023-08-01T09:19:34;24.80;92.40
17887;DHT22;9069;52.044;7.472;2023-08-01T09:22:02;24.60;92.40
17887;DHT22;9069;52.044;7.472;2023-08-01T09:24:28;24.40;92.20
17887;DHT22;9069;52.044;7.472;2023-08-01T09:27:03;24.20;92.20
17887;DHT22;9069;52.044;7.472;2023-08-01T09:29:32;24.00;92.30
17887;DHT22;9069;52.044;7.472;2023-08-01T09:31:59;23.90;93.20
17887;DHT22;9069;52.044;7.472;2023-08-01T09:34:27;23.70;94.00
17887;DHT22;9069;52.044;7.472;2023-08-01T09:37:00;23.60;94.70
17887;DHT22;9069;52.044;7.472;2023-08-01T09:39:27;23.50;95.10
17887;DHT22;9069;52.044;7.472;2023-08-01T09:41:59;23.40;95.50
17887;DHT22;9069;52.044;7.472;2023-08-01T09:44:27;23.50;95.50
17887;DHT22;9069;52.044;7.472;2023-08-01T09:47:02;23.50;95.90
17887;DHT22;9069;52.044;7.472;2023-08-01T09:49:30;23.60;96.30
17887;DHT22;9069;52.044;7.472;2023-08-01T09:51:57;23.80;97.60
17887;DHT22;9069;52.044;7.472;2023-08-01T09:54:24;23.80;97.50
17887;DHT22;9069;52.044;7.472;2023-08-01T09:56:52;24.00;97.30
17887;DHT22;9069;52.044;7.472;2023-08-01T09:59:22;24.10;96.70
17887;DHT22;9069;52.044;7.472;2023-08-01T10:01:50;24.30;95.90
17887;DHT22;9069;52.044;7.472;2023-08-01T10:04:23;24.30;95.40
17887;DHT22;9069;52.044;7.472;2023-08-01T10:06:54;24.40;94.60
17887;DHT22;9069;52.044;7.472;2023-08-01T10:09:23;24.30;94.00
17887;DHT22;9069;52.044;7.472;2023-08-01T10:11:51;24.20;94.20
17887;DHT22;9069;52.044;7.472;2023-08-01T10:14:20;24.20;94.60
17887;DHT22;9069;52.044;7.472;2023-08-01T10:16:47;24.10;94.90
17887;DHT22;9069;52.044;7.472;2023-08-01T10:19:15;24.10;95.40
17887;DHT22;9069;52.044;7.472;2023-08-01T10:21:42;24.10;95.20
17887;DHT22;9069;52.044;7.472;2023-08-01T10:24:11;24.20;94.90
17887;DHT22;9069;52.044;7.472;2023-08-01T10:26:38;24.10;94.70
17887;DHT22;9069;52.044;7.472;2023-08-01T10:29:06;24.20;95.00
17887;DHT22;9069;52.044;7.472;2023-08-01T10:31:33;24.10;94.20
17887;DHT22;9069;52.044;7.472;2023-08-01T10:34:11;24.10;93.90
17887;DHT22;9069;52.044;7.472;2023-08-01T10:36:41;24.10;93.60
17887;DHT22;9069;52.044;7.472;2023-08-01T10:39:08;24.00;93.60
17887;DHT22;9069;52.044;7.472;2023-08-01T10:41:36;23.90;93.50
17887;DHT22;9069;52.044;7.472;2023-08-01T10:49:20;23.60;93.50
17887;DHT22;9069;52.044;7.472;2023-08-01T10:51:48;23.40;94.00
17887;DHT22;9069;52.044;7.472;2023-08-01T10:54:25;23.40;94.70
17887;DHT22;9069;52.044;7.472;2023-08-01T10:56:54;23.40;95.60
17887;DHT22;9069;52.044;7.472;2023-08-01T10:59:21;23.40;95.60
17887;DHT22;9069;52.044;7.472;2023-08-01T11:01:51;23.40;95.70
17887;DHT22;9069;52.044;7.472;2023-08-01T11:04:22;23.50;95.40
17887;DHT22;9069;52.044;7.472;2023-08-01T11:06:51;23.50;95.10
17887;DHT22;9069;52.044;7.472;2023-08-01T11:09:24;23.60;95.00
17887;DHT22;9069;52.044;7.472;2023-08-01T11:11:53;23.60;94.80
17887;DHT22;9069;52.044;7.472;2023-08-01T11:14:22;23.50;94.60
17887;DHT22;9069;52.044;7.472;2023-08-01T11:16:50;23.40;94.70
17887;DHT22;9069;52.044;7.472;2023-08-01T11:19:22;23.40;95.40
17887;DHT22;9069;52.044;7.472;2023-08-01T11:21:49;23.30;95.70
17887;DHT22;9069;52.044;7.472;2023-08-01T11:24:17;23.40;95.90
17887;DHT22;9069;52.044;7.472;2023-08-01T11:26:46;23.50;96.00
17887;DHT22;9069;52.044;7.472;2023-08-01T11:29:14;23.30;96.00
17887;DHT22;9069;52.044;7.472;2023-08-01T11:31:51;23.40;96.10
17887;DHT22;9069;52.044;7.472;2023-08-01T11:34:19;23.50;96.30
17887;DHT22;9069;52.044;7.472;2023-08-01T11:36:46;23.60;96.40
17887;DHT22;9069;52.044;7.472;2023-08-01T11:39:13;23.60;96.10
17887;DHT22;9069;52.044;7.472;2023-08-01T11:41:41;23.70;95.60
17887;DHT22;9069;52.044;7.472;2023-08-01T11:44:08;23.80;95.30
17887;DHT22;9069;52.044;7.472;2023-08-01T11:46:38;23.80;94.80
17887;DHT22;9069;52.044;7.472;2023-08-01T11:49:06;23.90;94.40
17887;DHT22;9069;52.044;7.472;2023-08-01T11:51:41;23.80;93.50
17887;DHT22;9069;52.044;7.472;2023-08-01T11:54:08;23.80;92.20
17887;DHT22;9069;52.044;7.472;2023-08-01T11:56:38;23.70;92.20
17887;DHT22;9069;52.044;7.472;2023-08-01T11:59:16;23.50;91.90
17887;DHT22;9069;52.044;7.472;2023-08-01T12:01:46;23.30;91.50
17887;DHT22;9069;52.044;7.472;2023-08-01T12:04:28;23.20;92.00
17887;DHT22;9069;52.044;7.472;2023-08-01T12:06:55;23.00;92.50
17887;DHT22;9069;52.044;7.472;2023-08-01T12:09:22;22.80;93.20
17887;DHT22;9069;52.044;7.472;2023-08-01T12:11:59;22.70;93.70
17887;DHT22;9069;52.044;7.472;2023-08-01T12:14:30;22.60;94.40
17887;DHT22;9069;52.044;7.472;2023-08-01T12:16:57;22.50;94.80
17887;DHT22;9069;52.044;7.472;2023-08-01T12:19:24;22.50;95.30
17887;DHT22;9069;52.044;7.472;2023-08-01T12:21:51;22.50;95.60
17887;DHT22;9069;52.044;7.472;2023-08-01T12:24:17;22.50;95.70
17887;DHT22;9069;52.044;7.472;2023-08-01T12:26:44;22.60;95.90
17887;DHT22;9069;52.044;7.472;2023-08-01T12:29:11;22.60;96.00
17887;DHT22;9069;52.044;7.472;2023-08-01T12:31:38;22.70;96.10
17887;DHT22;9069;52.044;7.472;2023-08-01T12:34:05;22.70;96.10
17887;DHT22;9069;52.044;7.472;2023-08-01T12:36:32;22.70;96.10
17887;DHT22;9069;52.044;7.472;2023-08-01T12:38:59;22.80;96.00
17887;DHT22;9069;52.044;7.472;2023-08-01T12:41:25;22.80;95.90
17887;DHT22;9069;52.044;7.472;2023-08-01T12:43:52;22.80;95.80
17887;DHT22;9069;52.044;7.472;2023-08-01T12:46:19;22.90;95.70
17887;DHT22;9069;52.044;7.472;2023-08-01T12:48:46;22.80;95.70
17887;DHT22;9069;52.044;7.472;2023-08-01T12:51:13;22.90;95.80
17887;DHT22;9069;52.044;7.472;2023-08-01T12:53:41;22.80;95.80
17887;DHT22;9069;52.044;7.472;2023-08-01T12:56:11;22.90;95.90
17887;DHT22;9069;52.044;7.472;2023-08-01T12:58:38;22.90;96.10
17887;DHT22;9069;52.044;7.472;2023-08-01T13:01:05;22.90;96.50
17887;DHT22;9069;52.044;7.472;2023-08-01T13:03:32;23.00;96.80
17887;DHT22;9069;52.044;7.472;2023-08-01T13:05:59;23.00;97.00
17887;DHT22;9069;52.044;7.472;2023-08-01T13:08:26;23.00;97.20
17887;DHT22;9069;52.044;7.472;2023-08-01T13:10:52;23.10;97.20
17887;DHT22;9069;52.044;7.472;2023-08-01T13:13:19;23.10;96.90
17887;DHT22;9069;52.044;7.472;2023-08-01T13:15:46;23.20;96.90
17887;DHT22;9069;52.044;7.472;2023-08-01T13:18:13;23.30;96.70
17887;DHT22;9069;52.044;7.472;2023-08-01T13:20:40;23.40;96.70
17887;DHT22;9069;52.044;7.472;2023-08-01T13:23:07;23.50;96.60
17887;DHT22;9069;52.044;7.472;2023-08-01T13:25:35;23.40;96.40
17887;DHT22;9069;52.044;7.472;2023-08-01T13:28:02;23.50;96.10
17887;DHT22;9069;52.044;7.472;2023-08-01T13:30:29;23.60;95.70
17887;DHT22;9069;52.044;7.472;2023-08-01T13:32:55;23.60;95.50
17887;DHT22;9069;52.044;7.472;2023-08-01T13:35:22;23.60;95.30
17887;DHT22;9069;52.044;7.472;2023-08-01T13:37:49;23.60;95.30
17887;DHT22;9069;52.044;7.472;2023-08-01T13:40:16;23.60;95.10
17887;DHT22;9069;52.044;7.472;2023-08-01T13:42:42;23.60;94.80
17887;DHT22;9069;52.044;7.472;2023-08-01T13:45:09;23.70;94.70
17887;DHT22;9069;52.044;7.472;2023-08-01T13:47:36;23.50;94.60
17887;DHT22;9069;52.044;7.472;2023-08-01T13:50:03;23.50;94.60
17887;DHT22;9069;52.044;7.472;2023-08-01T13:52:30;23.50;94.60
17887;DHT22;9069;52.044;7.472;2023-08-01T13:54:57;23.50;94.50
17887;DHT22;9069;52.044;7.472;2023-08-01T13:57:25;23.40;94.30
17887;DHT22;9069;52.044;7.472;2023-08-01T13:59:52;23.50;94.20
17887;DHT22;9069;52.044;7.472;2023-08-01T14:02:36;23.40;94.20
17887;DHT22;9069;52.044;7.472;2023-08-01T14:05:04;23.40;94.40
17887;DHT22;9069;52.044;7.472;2023-08-01T14:07:31;23.40;94.40
17887;DHT22;9069;52.044;7.472;2023-08-01T14:09:57;23.40;94.20
17887;DHT22;9069;52.044;7.472;2023-08-01T14:12:24;23.40;93.80
17887;DHT22;9069;52.044;7.472;2023-08-01T14:14:52;23.50;93.90
17887;DHT22;9069;52.044;7.472;2023-08-01T14:17:19;23.50;93.90
17887;DHT22;9069;52.044;7.472;2023-08-01T14:19:46;23.50;93.70
17887;DHT22;9069;52.044;7.472;2023-08-01T14:22:13;23.50;93.40
17887;DHT22;9069;52.044;7.472;2023-08-01T14:24:39;23.50;93.20
17887;DHT22;9069;52.044;7.472;2023-08-01T14:27:06;23.50;93.00
17887;DHT22;9069;52.044;7.472;2023-08-01T14:29:33;23.50;93.00
17887;DHT22;9069;52.044;7.472;2023-08-01T14:32:00;23.50;92.90
17887;DHT22;9069;52.044;7.472;2023-08-01T14:34:26;23.50;92.90
17887;DHT22;9069;52.044;7.472;2023-08-01T14:36:54;23.60;92.40
17887;DHT22;9069;52.044;7.472;2023-08-01T14:39:21;23.50;92.10
17887;DHT22;9069;52.044;7.472;2023-08-01T14:41:49;23.60;92.10
17887;DHT22;9069;52.044;7.472;2023-08-01T14:44:19;23.50;92.00
17887;DHT22;9069;52.044;7.472;2023-08-01T14:46:46;23.60;91.40
17887;DHT22;9069;52.044;7.472;2023-08-01T14:49:13;23.60;90.90
17887;DHT22;9069;52.044;7.472;2023-08-01T14:51:40;23.60;90.40
17887;DHT22;9069;52.044;7.472;2023-08-01T14:54:06;23.60;90.10
17887;DHT22;9069;52.044;7.472;2023-08-01T14:56:33;23.60;89.80
17887;DHT22;9069;52.044;7.472;2023-08-01T14:59:00;23.60;89.00
17887;DHT22;9069;52.044;7.472;2023-08-01T15:01:27;23.60;89.20
17887;DHT22;9069;52.044;7.472;2023-08-01T15:03:53;23.60;89.00
17887;DHT22;9069;52.044;7.472;2023-08-01T15:06:20;23.60;88.50
17887;DHT22;9069;52.044;7.472;2023-08-01T15:08:47;23.60;88.50
17887;DHT22;9069;52.044;7.472;2023-08-01T15:11:15;23.60;87.90
17887;DHT22;9069;52.044;7.472;2023-08-01T15:13:42;23.60;87.10
17887;DHT22;9069;52.044;7.472;2023-08-01T15:16:10;23.60;87.50
17887;DHT22;9069;52.044;7.472;2023-08-01T15:18:38;23.60;86.60
17887;DHT22;9069;52.044;7.472;2023-08-01T15:21:05;23.60;87.20
17887;DHT22;9069;52.044;7.472;2023-08-01T15:23:31;23.60;87.40
17887;DHT22;9069;52.044;7.472;2023-08-01T15:25:59;23.60;87.30
17887;DHT22;9069;52.044;7.472;2023-08-01T15:28:26;23.60;86.50
17887;DHT22;9069;52.044;7.472;2023-08-01T15:31:07;23.70;86.20
17887;DHT22;9069;52.044;7.472;2023-08-01T15:33:35;23.70;84.70
17887;DHT22;9069;52.044;7.472;2023-08-01T15:36:04;23.70;86.00
17887;DHT22;9069;52.044;7.472;2023-08-01T15:38:32;23.70;85.50
17887;DHT22;9069;52.044;7.472;2023-08-01T15:41:00;23.70;85.80
17887;DHT22;9069;52.044;7.472;2023-08-01T15:43:34;23.70;85.50
17887;DHT22;9069;52.044;7.472;2023-08-01T15:46:03;23.70;84.60
17887;DHT22;9069;52.044;7.472;2023-08-01T15:48:32;23.60;84.20
17887;DHT22;9069;52.044;7.472;2023-08-01T15:50:59;23.60;84.40